sensor_id;sensor_type;location;lat;lon;timestamp;pressure;altitude;pressure_sealevel;temperature;humidity
21824;BME280;11074;48.596;9.238;2024-02-26T00:01:14;96329.34;;;8.73;63.35
21824;BME280;11074;48.596;9.238;2024-02-26T00:03:39;96331.50;;;8.71;64.21
21824;BME280;11074;48.596;9.238;2024-02-26T00:06:07;96330.59;;;8.81;64.81
21824;BME280;11074;48.596;9.238;2024-02-26T00:08:32;96338.06;;;8.79;64.45
21824;BME280;11074;48.596;9.238;2024-02-26T00:10:57;96331.94;;;8.78;65.32
21824;BME280;11074;48.596;9.238;2024-02-26T00:13:23;96327.47;;;8.74;65.82
21824;BME280;11074;48.596;9.238;2024-02-26T00:15:48;96332.59;;;8.70;65.47
21824;BME280;11074;48.596;9.238;2024-02-26T00:18:14;96330.50;;;8.67;65.65
21824;BME280;11074;48.596;9.238;2024-02-26T00:20:39;96326.47;;;8.70;66.29
21824;BME280;11074;48.596;9.238;2024-02-26T00:23:05;96339.78;;;8.70;66.44
21824;BME280;11074;48.596;9.238;2024-02-26T00:25:30;96334.47;;;8.70;66.91
21824;BME280;11074;48.596;9.238;2024-02-26T00:27:55;96326.81;;;8.63;67.45
21824;BME280;11074;48.596;9.238;2024-02-26T00:30:21;96330.25;;;8.64;67.81
21824;BME280;11074;48.596;9.238;2024-02-26T00:32:47;96324.69;;;8.60;68.00
21824;BME280;11074;48.596;9.238;2024-02-26T00:35:13;96323.63;;;8.61;67.88
21824;BME280;11074;48.596;9.238;2024-02-26T00:37:39;96317.28;;;8.57;68.31
21824;BME280;11074;48.596;9.238;2024-02-26T00:40:05;96314.91;;;8.56;68.34
21824;BME280;11074;48.596;9.238;2024-02-26T00:42:31;96312.25;;;8.56;68.43
21824;BME280;11074;48.596;9.238;2024-02-26T00:44:56;96313.03;;;8.56;68.05
21824;BME280;11074;48.596;9.238;2024-02-26T00:47:22;96320.75;;;8.58;68.17
21824;BME280;11074;48.596;9.238;2024-02-26T00:49:47;96317.63;;;8.50;68.95
21824;BME280;11074;48.596;9.238;2024-02-26T00:52:12;96310.59;;;8.60;68.32
21824;BME280;11074;48.596;9.238;2024-02-26T00:54:37;96310.38;;;8.56;68.76
21824;BME280;11074;48.596;9.238;2024-02-26T00:57:03;96305.31;;;8.54;68.58
21824;BME280;11074;48.596;9.238;2024-02-26T00:59:28;96303.47;;;8.55;68.90
21824;BME280;11074;48.596;9.238;2024-02-26T01:01:53;96318.38;;;8.56;68.68
21824;BME280;11074;48.596;9.238;2024-02-26T01:04:19;96316.34;;;8.48;68.89
21824;BME280;11074;48.596;9.238;2024-02-26T01:06:44;96315.72;;;8.56;68.44
21824;BME280;11074;48.596;9.238;2024-02-26T01:09:09;96313.91;;;8.51;68.54
21824;BME280;11074;48.596;9.238;2024-02-26T01:11:35;96325.06;;;8.53;68.56
21824;BME280;11074;48.596;9.238;2024-02-26T01:14:01;96314.53;;;8.43;68.91
21824;BME280;11074;48.596;9.238;2024-02-26T01:16:26;96319.75;;;8.30;69.91
21824;BME280;11074;48.596;9.238;2024-02-26T01:18:54;96302.66;;;8.31;70.15
21824;BME280;11074;48.596;9.238;2024-02-26T01:21:19;96331.69;;;8.32;70.98
21824;BME280;11074;48.596;9.238;2024-02-26T01:23:44;96327.16;;;8.33;69.54
21824;BME280;11074;48.596;9.238;2024-02-26T01:26:10;96321.13;;;8.22;69.46
21824;BME280;11074;48.596;9.238;2024-02-26T01:28:36;96321.84;;;8.33;69.68
21824;BME280;11074;48.596;9.238;2024-02-26T01:31:01;96328.13;;;8.42;68.98
21824;BME280;11074;48.596;9.238;2024-02-26T01:33:26;96329.16;;;8.46;69.41
21824;BME280;11074;48.596;9.238;2024-02-26T01:35:51;96325.69;;;8.45;69.39
21824;BME280;11074;48.596;9.238;2024-02-26T01:38:18;96322.53;;;8.43;70.31
21824;BME280;11074;48.596;9.238;2024-02-26T01:40:43;96325.00;;;8.35;69.33
21824;BME280;11074;48.596;9.238;2024-02-26T01:43:08;96316.47;;;8.38;70.07
21824;BME280;11074;48.596;9.238;2024-02-26T01:45:34;96332.44;;;8.38;70.68
21824;BME280;11074;48.596;9.238;2024-02-26T01:47:59;96347.09;;;8.35;71.13
21824;BME280;11074;48.596;9.238;2024-02-26T01:50:25;96345.00;;;8.32;71.22
21824;BME280;11074;48.596;9.238;2024-02-26T01:52:52;96353.50;;;8.34;71.44
21824;BME280;11074;48.596;9.238;2024-02-26T01:55:18;96347.59;;;8.37;71.25
21824;BME280;11074;48.596;9.238;2024-02-26T01:57:45;96344.44;;;8.35;71.40
21824;BME280;11074;48.596;9.238;2024-02-26T02:00:13;96346.56;;;8.33;71.88
21824;BME280;11074;48.596;9.238;2024-02-26T02:02:39;96352.97;;;8.32;72.44
21824;BME280;11074;48.596;9.238;2024-02-26T02:05:08;96340.47;;;8.33;71.60
21824;BME280;11074;48.596;9.238;2024-02-26T02:07:34;96332.31;;;8.19;71.60
21824;BME280;11074;48.596;9.238;2024-02-26T02:10:00;96357.22;;;8.33;72.26
21824;BME280;11074;48.596;9.238;2024-02-26T02:12:26;96355.09;;;8.35;71.80
21824;BME280;11074;48.596;9.238;2024-02-26T02:14:52;96351.69;;;8.30;72.61
21824;BME280;11074;48.596;9.238;2024-02-26T02:17:17;96352.69;;;8.34;72.08
21824;BME280;11074;48.596;9.238;2024-02-26T02:19:42;96346.81;;;8.37;70.91
21824;BME280;11074;48.596;9.238;2024-02-26T02:22:08;96334.84;;;8.34;70.03
21824;BME280;11074;48.596;9.238;2024-02-26T02:24:33;96338.31;;;8.35;69.72
21824;BME280;11074;48.596;9.238;2024-02-26T02:26:59;96362.28;;;8.35;70.33
21824;BME280;11074;48.596;9.238;2024-02-26T02:29:24;96378.47;;;8.38;71.31
21824;BME280;11074;48.596;9.238;2024-02-26T02:31:50;96377.09;;;8.41;71.09
21824;BME280;11074;48.596;9.238;2024-02-26T02:34:15;96355.13;;;8.30;71.68
21824;BME280;11074;48.596;9.238;2024-02-26T02:36:53;96355.41;;;8.29;72.39
21824;BME280;11074;48.596;9.238;2024-02-26T02:39:19;96362.84;;;8.32;72.85
21824;BME280;11074;48.596;9.238;2024-02-26T02:41:45;96358.56;;;8.31;74.00
21824;BME280;11074;48.596;9.238;2024-02-26T02:44:11;96352.75;;;8.29;74.77
21824;BME280;11074;48.596;9.238;2024-02-26T02:46:36;96345.34;;;8.21;74.21
21824;BME280;11074;48.596;9.238;2024-02-26T02:49:02;96336.34;;;8.17;74.97
21824;BME280;11074;48.596;9.238;2024-02-26T02:51:27;96348.50;;;8.23;74.07
21824;BME280;11074;48.596;9.238;2024-02-26T02:53:52;96344.75;;;8.29;73.61
21824;BME280;11074;48.596;9.238;2024-02-26T02:56:18;96345.81;;;8.33;73.53
21824;BME280;11074;48.596;9.238;2024-02-26T02:58:43;96347.50;;;8.19;73.37
21824;BME280;11074;48.596;9.238;2024-02-26T03:01:09;96341.31;;;8.23;73.76
21824;BME280;11074;48.596;9.238;2024-02-26T03:03:34;96350.88;;;8.29;74.44
21824;BME280;11074;48.596;9.238;2024-02-26T03:06:02;96360.22;;;8.27;74.87
21824;BME280;11074;48.596;9.238;2024-02-26T03:08:27;96355.03;;;8.07;75.50
21824;BME280;11074;48.596;9.238;2024-02-26T03:10:52;96339.84;;;8.12;75.18
21824;BME280;11074;48.596;9.238;2024-02-26T03:13:18;96341.09;;;8.20;74.33
21824;BME280;11074;48.596;9.238;2024-02-26T03:15:43;96344.53;;;8.20;75.40
21824;BME280;11074;48.596;9.238;2024-02-26T03:18:08;96342.41;;;8.22;75.06
21824;BME280;11074;48.596;9.238;2024-02-26T03:20:34;96346.91;;;8.27;74.87
21824;BME280;11074;48.596;9.238;2024-02-26T03:22:59;96331.59;;;8.14;75.04
21824;BME280;11074;48.596;9.238;2024-02-26T03:25:24;96321.88;;;8.28;74.97
21824;BME280;11074;48.596;9.238;2024-02-26T03:27:50;96333.25;;;8.33;74.86
21824;BME280;11074;48.596;9.238;2024-02-26T03:30:15;96330.66;;;8.28;74.57
21824;BME280;11074;48.596;9.238;2024-02-26T03:32:41;96325.63;;;8.27;75.02
21824;BME280;11074;48.596;9.238;2024-02-26T03:35:06;96315.00;;;8.22;74.85
21824;BME280;11074;48.596;9.238;2024-02-26T03:37:32;96299.25;;;8.25;75.13
21824;BME280;11074;48.596;9.238;2024-02-26T03:39:58;96301.38;;;8.28;74.59
21824;BME280;11074;48.596;9.238;2024-02-26T03:42:23;96315.78;;;8.27;75.76
21824;BME280;11074;48.596;9.238;2024-02-26T03:44:49;96332.53;;;8.23;75.59
21824;BME280;11074;48.596;9.238;2024-02-26T03:47:14;96352.06;;;8.13;74.78
21824;BME280;11074;48.596;9.238;2024-02-26T03:49:39;96351.63;;;8.06;73.88
21824;BME280;11074;48.596;9.238;2024-02-26T03:52:05;96352.97;;;8.04;74.18
21824;BME280;11074;48.596;9.238;2024-02-26T03:54:30;96349.47;;;8.08;74.17
21824;BME280;11074;48.596;9.238;2024-02-26T03:56:56;96320.41;;;8.12;74.53
21824;BME280;11074;48.596;9.238;2024-02-26T03:59:21;96321.25;;;8.07;73.55
21824;BME280;11074;48.596;9.238;2024-02-26T04:01:49;96317.03;;;8.06;73.73
21824;BME280;11074;48.596;9.238;2024-02-26T04:04:14;96328.69;;;8.10;73.69
21824;BME280;11074;48.596;9.238;2024-02-26T04:06:44;96325.72;;;8.12;72.97
21824;BME280;11074;48.596;9.238;2024-02-26T04:09:09;96322.34;;;8.06;73.08
21824;BME280;11074;48.596;9.238;2024-02-26T04:11:35;96328.69;;;8.10;72.24
21824;BME280;11074;48.596;9.238;2024-02-26T04:14:00;96329.72;;;8.14;72.67
21824;BME280;11074;48.596;9.238;2024-02-26T04:16:26;96337.13;;;8.17;72.73
21824;BME280;11074;48.596;9.238;2024-02-26T04:18:51;96339.75;;;8.22;73.30
21824;BME280;11074;48.596;9.238;2024-02-26T04:21:18;96352.81;;;8.19;72.76
21824;BME280;11074;48.596;9.238;2024-02-26T04:23:43;96352.06;;;8.13;73.02
21824;BME280;11074;48.596;9.238;2024-02-26T04:26:09;96365.88;;;8.15;73.33
21824;BME280;11074;48.596;9.238;2024-02-26T04:28:34;96368.28;;;8.17;74.19
21824;BME280;11074;48.596;9.238;2024-02-26T04:31:00;96369.34;;;8.16;74.04
21824;BME280;11074;48.596;9.238;2024-02-26T04:33:25;96351.50;;;8.16;74.36
21824;BME280;11074;48.596;9.238;2024-02-26T04:35:51;96344.09;;;8.13;73.54
21824;BME280;11074;48.596;9.238;2024-02-26T04:38:16;96349.91;;;8.15;73.93
21824;BME280;11074;48.596;9.238;2024-02-26T04:40:41;96341.66;;;8.17;74.39
21824;BME280;11074;48.596;9.238;2024-02-26T04:43:07;96352.88;;;8.14;74.76
21824;BME280;11074;48.596;9.238;2024-02-26T04:45:32;96344.19;;;8.03;74.63
21824;BME280;11074;48.596;9.238;2024-02-26T04:47:59;96344.56;;;7.91;74.77
21824;BME280;11074;48.596;9.238;2024-02-26T04:50:24;96346.06;;;8.03;74.93
21824;BME280;11074;48.596;9.238;2024-02-26T04:52:49;96332.69;;;8.08;74.71
21824;BME280;11074;48.596;9.238;2024-02-26T04:55:15;96336.66;;;8.10;74.29
21824;BME280;11074;48.596;9.238;2024-02-26T04:57:40;96325.50;;;8.08;73.42
21824;BME280;11074;48.596;9.238;2024-02-26T05:00:06;96321.06;;;7.99;74.35
21824;BME280;11074;48.596;9.238;2024-02-26T05:02:31;96315.13;;;8.07;75.15
21824;BME280;11074;48.596;9.238;2024-02-26T05:04:58;96307.63;;;8.14;74.50
21824;BME280;11074;48.596;9.238;2024-02-26T05:07:24;96313.75;;;8.14;73.87
21824;BME280;11074;48.596;9.238;2024-02-26T05:09:49;96319.84;;;8.15;74.27
21824;BME280;11074;48.596;9.238;2024-02-26T05:12:14;96321.25;;;8.07;74.97
21824;BME280;11074;48.596;9.238;2024-02-26T05:14:40;96323.22;;;7.97;75.57
21824;BME280;11074;48.596;9.238;2024-02-26T05:17:05;96318.94;;;8.01;75.07
21824;BME280;11074;48.596;9.238;2024-02-26T05:19:31;96329.19;;;8.12;74.85
21824;BME280;11074;48.596;9.238;2024-02-26T05:21:56;96329.97;;;8.13;75.21
21824;BME280;11074;48.596;9.238;2024-02-26T05:24:22;96348.06;;;8.16;75.01
21824;BME280;11074;48.596;9.238;2024-02-26T05:26:48;96363.28;;;8.10;75.23
21824;BME280;11074;48.596;9.238;2024-02-26T05:29:13;96362.88;;;7.98;75.44
21824;BME280;11074;48.596;9.238;2024-02-26T05:31:38;96365.69;;;8.07;75.58
21824;BME280;11074;48.596;9.238;2024-02-26T05:34:04;96369.91;;;8.13;75.85
21824;BME280;11074;48.596;9.238;2024-02-26T05:36:29;96369.50;;;8.01;75.87
21824;BME280;11074;48.596;9.238;2024-02-26T05:38:59;96368.31;;;8.12;75.81
21824;BME280;11074;48.596;9.238;2024-02-26T05:41:24;96361.06;;;8.17;75.50
21824;BME280;11074;48.596;9.238;2024-02-26T05:43:52;96369.06;;;8.17;76.19
21824;BME280;11074;48.596;9.238;2024-02-26T05:46:18;96352.13;;;8.08;76.21
21824;BME280;11074;48.596;9.238;2024-02-26T05:48:48;96347.81;;;8.12;76.69
21824;BME280;11074;48.596;9.238;2024-02-26T05:51:13;96358.75;;;8.11;77.08
21824;BME280;11074;48.596;9.238;2024-02-26T05:53:40;96358.41;;;8.17;76.79
21824;BME280;11074;48.596;9.238;2024-02-26T05:56:06;96364.59;;;8.13;77.11
21824;BME280;11074;48.596;9.238;2024-02-26T05:58:32;96371.91;;;7.97;78.71
21824;BME280;11074;48.596;9.238;2024-02-26T06:00:58;96384.16;;;7.98;78.20
21824;BME280;11074;48.596;9.238;2024-02-26T06:03:25;96391.09;;;7.94;78.85
21824;BME280;11074;48.596;9.238;2024-02-26T06:05:51;96388.16;;;7.96;78.30
21824;BME280;11074;48.596;9.238;2024-02-26T06:08:16;96393.75;;;7.94;78.42
21824;BME280;11074;48.596;9.238;2024-02-26T06:10:42;96390.56;;;7.92;78.72
21824;BME280;11074;48.596;9.238;2024-02-26T06:13:07;96389.78;;;7.91;78.32
21824;BME280;11074;48.596;9.238;2024-02-26T06:15:32;96378.06;;;7.92;78.40
21824;BME280;11074;48.596;9.238;2024-02-26T06:17:58;96381.50;;;7.93;78.70
21824;BME280;11074;48.596;9.238;2024-02-26T06:20:23;96374.09;;;7.90;78.58
21824;BME280;11074;48.596;9.238;2024-02-26T06:22:49;96381.84;;;7.86;78.57
21824;BME280;11074;48.596;9.238;2024-02-26T06:25:14;96388.00;;;7.82;78.14
21824;BME280;11074;48.596;9.238;2024-02-26T06:27:39;96395.44;;;7.85;78.47
21824;BME280;11074;48.596;9.238;2024-02-26T06:30:05;96396.56;;;7.74;79.15
21824;BME280;11074;48.596;9.238;2024-02-26T06:32:31;96416.63;;;7.56;80.34
21824;BME280;11074;48.596;9.238;2024-02-26T06:34:57;96420.88;;;7.57;80.65
21824;BME280;11074;48.596;9.238;2024-02-26T06:37:22;96426.69;;;7.64;79.86
21824;BME280;11074;48.596;9.238;2024-02-26T06:39:48;96428.91;;;7.47;81.33
21824;BME280;11074;48.596;9.238;2024-02-26T06:42:23;96451.97;;;7.57;80.34
21824;BME280;11074;48.596;9.238;2024-02-26T06:44:49;96437.34;;;7.59;80.20
21824;BME280;11074;48.596;9.238;2024-02-26T06:47:14;96456.03;;;7.49;80.08
21824;BME280;11074;48.596;9.238;2024-02-26T06:49:39;96454.34;;;7.63;80.14
21824;BME280;11074;48.596;9.238;2024-02-26T06:52:05;96455.66;;;7.66;79.16
21824;BME280;11074;48.596;9.238;2024-02-26T06:54:31;96459.31;;;7.75;79.52
21824;BME280;11074;48.596;9.238;2024-02-26T06:56:56;96460.88;;;7.81;79.34
21824;BME280;11074;48.596;9.238;2024-02-26T06:59:22;96470.47;;;7.82;78.91
21824;BME280;11074;48.596;9.238;2024-02-26T07:01:48;96476.81;;;7.86;78.77
21824;BME280;11074;48.596;9.238;2024-02-26T07:04:14;96469.28;;;7.93;78.51
21824;BME280;11074;48.596;9.238;2024-02-26T07:06:39;96463.44;;;7.96;79.06
21824;BME280;11074;48.596;9.238;2024-02-26T07:09:05;96464.53;;;7.95;79.18
21824;BME280;11074;48.596;9.238;2024-02-26T07:11:30;96473.84;;;7.92;79.01
21824;BME280;11074;48.596;9.238;2024-02-26T07:13:55;96469.28;;;7.93;78.17
21824;BME280;11074;48.596;9.238;2024-02-26T07:16:20;96472.97;;;8.02;78.37
21824;BME280;11074;48.596;9.238;2024-02-26T07:18:46;96480.97;;;8.02;77.88
21824;BME280;11074;48.596;9.238;2024-02-26T07:21:12;96481.47;;;8.04;77.29
21824;BME280;11074;48.596;9.238;2024-02-26T07:23:37;96473.22;;;8.06;77.65
21824;BME280;11074;48.596;9.238;2024-02-26T07:26:02;96478.19;;;8.17;76.86
21824;BME280;11074;48.596;9.238;2024-02-26T07:28:28;96485.06;;;8.23;77.38
21824;BME280;11074;48.596;9.238;2024-02-26T07:30:54;96483.47;;;8.27;76.68
21824;BME280;11074;48.596;9.238;2024-02-26T07:33:19;96495.69;;;8.23;76.43
21824;BME280;11074;48.596;9.238;2024-02-26T07:35:45;96496.78;;;8.27;76.27
21824;BME280;11074;48.596;9.238;2024-02-26T07:38:10;96485.00;;;8.33;75.79
21824;BME280;11074;48.596;9.238;2024-02-26T07:40:35;96489.31;;;8.29;76.23
21824;BME280;11074;48.596;9.238;2024-02-26T07:43:01;96488.97;;;8.36;76.28
21824;BME280;11074;48.596;9.238;2024-02-26T07:45:26;96494.06;;;8.32;76.65
21824;BME280;11074;48.596;9.238;2024-02-26T07:47:52;96503.97;;;8.22;76.45
21824;BME280;11074;48.596;9.238;2024-02-26T07:50:18;96517.28;;;8.27;76.69
21824;BME280;11074;48.596;9.238;2024-02-26T07:52:44;96517.78;;;8.29;76.60
21824;BME280;11074;48.596;9.238;2024-02-26T07:55:10;96519.66;;;8.28;75.83
21824;BME280;11074;48.596;9.238;2024-02-26T07:57:35;96515.13;;;8.24;76.63
21824;BME280;11074;48.596;9.238;2024-02-26T08:00:04;96516.41;;;8.36;75.99
21824;BME280;11074;48.596;9.238;2024-02-26T08:02:32;96512.28;;;8.49;75.67
21824;BME280;11074;48.596;9.238;2024-02-26T08:04:59;96509.63;;;8.49;75.59
21824;BME280;11074;48.596;9.238;2024-02-26T08:07:24;96515.28;;;8.42;75.58
21824;BME280;11074;48.596;9.238;2024-02-26T08:09:49;96510.84;;;8.33;75.87
21824;BME280;11074;48.596;9.238;2024-02-26T08:12:15;96515.28;;;8.42;75.68
21824;BME280;11074;48.596;9.238;2024-02-26T08:14:40;96510.75;;;8.43;75.41
21824;BME280;11074;48.596;9.238;2024-02-26T08:17:05;96512.41;;;8.34;76.51
21824;BME280;11074;48.596;9.238;2024-02-26T08:19:31;96504.94;;;8.36;76.01
21824;BME280;11074;48.596;9.238;2024-02-26T08:21:56;96493.44;;;8.45;75.73
21824;BME280;11074;48.596;9.238;2024-02-26T08:24:23;96487.78;;;8.52;75.64
21824;BME280;11074;48.596;9.238;2024-02-26T08:26:48;96483.16;;;8.63;74.90
21824;BME280;11074;48.596;9.238;2024-02-26T08:29:13;96477.78;;;8.68;74.97
21824;BME280;11074;48.596;9.238;2024-02-26T08:31:38;96484.94;;;8.72;74.90
21824;BME280;11074;48.596;9.238;2024-02-26T08:34:07;96488.91;;;8.75;74.76
21824;BME280;11074;48.596;9.238;2024-02-26T08:36:33;96493.13;;;8.81;74.13
21824;BME280;11074;48.596;9.238;2024-02-26T08:38:58;96497.66;;;8.80;72.93
21824;BME280;11074;48.596;9.238;2024-02-26T08:41:24;96492.72;;;8.92;73.85
21824;BME280;11074;48.596;9.238;2024-02-26T08:43:49;96488.97;;;8.93;73.82
21824;BME280;11074;48.596;9.238;2024-02-26T08:46:14;96473.78;;;8.94;73.75
21824;BME280;11074;48.596;9.238;2024-02-26T08:48:40;96477.47;;;8.98;72.67
21824;BME280;11074;48.596;9.238;2024-02-26T08:51:06;96470.50;;;9.02;72.88
21824;BME280;11074;48.596;9.238;2024-02-26T08:53:32;96477.16;;;9.04;72.19
21824;BME280;11074;48.596;9.238;2024-02-26T08:55:57;96471.47;;;9.11;71.12
21824;BME280;11074;48.596;9.238;2024-02-26T08:58:22;96463.47;;;9.11;70.97
21824;BME280;11074;48.596;9.238;2024-02-26T09:00:48;96469.03;;;9.14;71.02
21824;BME280;11074;48.596;9.238;2024-02-26T09:03:13;96470.84;;;9.19;71.00
21824;BME280;11074;48.596;9.238;2024-02-26T09:05:38;96463.63;;;9.20;71.96
21824;BME280;11074;48.596;9.238;2024-02-26T09:08:04;96465.00;;;9.17;72.38
21824;BME280;11074;48.596;9.238;2024-02-26T09:10:29;96471.94;;;9.18;74.27
21824;BME280;11074;48.596;9.238;2024-02-26T09:12:55;96470.66;;;9.10;74.11
21824;BME280;11074;48.596;9.238;2024-02-26T09:15:20;96473.56;;;9.14;73.70
21824;BME280;11074;48.596;9.238;2024-02-26T09:17:45;96483.66;;;9.17;73.71
21824;BME280;11074;48.596;9.238;2024-02-26T09:20:11;96482.13;;;9.11;73.66
21824;BME280;11074;48.596;9.238;2024-02-26T09:22:38;96489.50;;;9.19;74.05
21824;BME280;11074;48.596;9.238;2024-02-26T09:25:04;96488.94;;;9.22;74.34
21824;BME280;11074;48.596;9.238;2024-02-26T09:27:30;96480.38;;;9.25;73.89
21824;BME280;11074;48.596;9.238;2024-02-26T09:29:55;96482.53;;;9.23;73.45
21824;BME280;11074;48.596;9.238;2024-02-26T09:32:21;96474.66;;;9.32;72.74
21824;BME280;11074;48.596;9.238;2024-02-26T09:34:46;96479.00;;;9.28;73.56
21824;BME280;11074;48.596;9.238;2024-02-26T09:37:11;96470.38;;;9.36;73.49
21824;BME280;11074;48.596;9.238;2024-02-26T09:39:38;96477.44;;;9.45;72.92
21824;BME280;11074;48.596;9.238;2024-02-26T09:42:04;96497.34;;;9.53;72.70
21824;BME280;11074;48.596;9.238;2024-02-26T09:44:31;96500.25;;;9.56;72.20
21824;BME280;11074;48.596;9.238;2024-02-26T09:47:00;96499.59;;;9.64;72.92
21824;BME280;11074;48.596;9.238;2024-02-26T09:49:26;96505.34;;;9.77;71.89
21824;BME280;11074;48.596;9.238;2024-02-26T09:51:53;96507.63;;;9.83;70.96
21824;BME280;11074;48.596;9.238;2024-02-26T09:54:19;96506.97;;;9.91;71.32
21824;BME280;11074;48.596;9.238;2024-02-26T09:56:47;96517.44;;;10.06;71.21
21824;BME280;11074;48.596;9.238;2024-02-26T09:59:16;96511.78;;;10.13;70.77
21824;BME280;11074;48.596;9.238;2024-02-26T10:01:44;96504.50;;;10.18;70.97
21824;BME280;11074;48.596;9.238;2024-02-26T10:04:09;96514.13;;;10.33;70.60
21824;BME280;11074;48.596;9.238;2024-02-26T10:06:36;96517.34;;;10.49;69.37
21824;BME280;11074;48.596;9.238;2024-02-26T10:09:03;96523.53;;;10.63;68.97
21824;BME280;11074;48.596;9.238;2024-02-26T10:11:31;96520.59;;;10.64;68.35
21824;BME280;11074;48.596;9.238;2024-02-26T10:13:57;96527.25;;;10.67;68.42
21824;BME280;11074;48.596;9.238;2024-02-26T10:16:22;96521.50;;;10.73;66.67
21824;BME280;11074;48.596;9.238;2024-02-26T10:18:52;96519.53;;;10.79;65.33
21824;BME280;11074;48.596;9.238;2024-02-26T10:21:20;96521.03;;;10.85;66.27
21824;BME280;11074;48.596;9.238;2024-02-26T10:23:45;96522.13;;;10.84;64.18
21824;BME280;11074;48.596;9.238;2024-02-26T10:26:12;96505.38;;;10.78;64.04
21824;BME280;11074;48.596;9.238;2024-02-26T10:28:39;96506.56;;;10.86;63.27
21824;BME280;11074;48.596;9.238;2024-02-26T10:31:05;96504.81;;;10.95;62.99
21824;BME280;11074;48.596;9.238;2024-02-26T10:33:33;96510.28;;;11.04;62.20
21824;BME280;11074;48.596;9.238;2024-02-26T10:36:01;96512.47;;;11.02;61.35
21824;BME280;11074;48.596;9.238;2024-02-26T10:38:26;96507.31;;;11.05;62.56
21824;BME280;11074;48.596;9.238;2024-02-26T10:40:51;96512.88;;;11.09;62.21
21824;BME280;11074;48.596;9.238;2024-02-26T10:43:17;96527.31;;;11.08;61.67
21824;BME280;11074;48.596;9.238;2024-02-26T10:45:43;96520.00;;;11.13;60.73
21824;BME280;11074;48.596;9.238;2024-02-26T10:48:13;96524.97;;;11.20;62.49
21824;BME280;11074;48.596;9.238;2024-02-26T10:50:40;96523.00;;;11.25;62.44
21824;BME280;11074;48.596;9.238;2024-02-26T10:53:20;96508.13;;;11.33;62.63
21824;BME280;11074;48.596;9.238;2024-02-26T10:55:49;96514.28;;;11.33;62.15
21824;BME280;11074;48.596;9.238;2024-02-26T10:58:18;96516.06;;;11.38;62.63
21824;BME280;11074;48.596;9.238;2024-02-26T11:00:44;96508.50;;;11.40;61.19
21824;BME280;11074;48.596;9.238;2024-02-26T11:03:11;96512.38;;;11.47;60.86
21824;BME280;11074;48.596;9.238;2024-02-26T11:05:36;96511.69;;;11.55;61.62
21824;BME280;11074;48.596;9.238;2024-02-26T11:08:05;96507.31;;;11.60;61.87
21824;BME280;11074;48.596;9.238;2024-02-26T11:10:31;96512.25;;;11.52;61.27
21824;BME280;11074;48.596;9.238;2024-02-26T11:12:59;96516.44;;;11.58;61.74
21824;BME280;11074;48.596;9.238;2024-02-26T11:15:25;96521.50;;;11.60;61.13
21824;BME280;11074;48.596;9.238;2024-02-26T11:17:52;96519.22;;;11.67;61.60
21824;BME280;11074;48.596;9.238;2024-02-26T11:20:18;96515.72;;;11.67;61.30
21824;BME280;11074;48.596;9.238;2024-02-26T11:22:44;96523.28;;;11.65;61.66
21824;BME280;11074;48.596;9.238;2024-02-26T11:25:09;96514.09;;;11.71;61.82
21824;BME280;11074;48.596;9.238;2024-02-26T11:27:58;96510.28;;;11.85;61.59
21824;BME280;11074;48.596;9.238;2024-02-26T11:30:30;96518.41;;;11.94;60.90
21824;BME280;11074;48.596;9.238;2024-02-26T11:32:57;96518.19;;;12.04;59.81
21824;BME280;11074;48.596;9.238;2024-02-26T11:35:23;96533.63;;;12.21;59.20
21824;BME280;11074;48.596;9.238;2024-02-26T11:37:55;96532.03;;;12.20;58.95
21824;BME280;11074;48.596;9.238;2024-02-26T11:40:23;96534.97;;;12.32;59.43
21824;BME280;11074;48.596;9.238;2024-02-26T11:42:50;96524.44;;;12.35;59.61
21824;BME280;11074;48.596;9.238;2024-02-26T11:48:04;96516.91;;;12.37;59.50
21824;BME280;11074;48.596;9.238;2024-02-26T11:50:34;96524.31;;;12.40;58.52
21824;BME280;11074;48.596;9.238;2024-02-26T11:56:30;96529.22;;;12.60;59.12
21824;BME280;11074;48.596;9.238;2024-02-26T11:59:00;96526.47;;;12.74;59.23
21824;BME280;11074;48.596;9.238;2024-02-26T12:01:45;96526.88;;;12.90;59.27
21824;BME280;11074;48.596;9.238;2024-02-26T12:04:15;96524.50;;;13.10;57.59
21824;BME280;11074;48.596;9.238;2024-02-26T12:06:46;96528.16;;;13.23;56.88
21824;BME280;11074;48.596;9.238;2024-02-26T12:09:12;96528.06;;;13.36;56.26
21824;BME280;11074;48.596;9.238;2024-02-26T12:11:39;96528.94;;;13.54;55.70
21824;BME280;11074;48.596;9.238;2024-02-26T12:14:07;96528.94;;;13.63;55.51
21824;BME280;11074;48.596;9.238;2024-02-26T12:16:37;96539.75;;;13.80;54.56
21824;BME280;11074;48.596;9.238;2024-02-26T12:19:08;96537.22;;;13.75;55.47
21824;BME280;11074;48.596;9.238;2024-02-26T12:21:37;96541.81;;;13.83;54.25
21824;BME280;11074;48.596;9.238;2024-02-26T12:24:13;96550.78;;;13.70;55.58
21824;BME280;11074;48.596;9.238;2024-02-26T12:26:39;96541.72;;;13.49;56.03
21824;BME280;11074;48.596;9.238;2024-02-26T12:29:04;96548.84;;;13.53;55.78
21824;BME280;11074;48.596;9.238;2024-02-26T12:31:30;96543.78;;;13.52;56.45
21824;BME280;11074;48.596;9.238;2024-02-26T12:33:56;96539.53;;;13.59;56.80
21824;BME280;11074;48.596;9.238;2024-02-26T12:36:22;96529.47;;;13.65;56.67
21824;BME280;11074;48.596;9.238;2024-02-26T12:38:49;96529.84;;;13.41;56.76
21824;BME280;11074;48.596;9.238;2024-02-26T12:41:15;96531.53;;;13.68;56.50
21824;BME280;11074;48.596;9.238;2024-02-26T12:43:41;96533.44;;;13.84;56.24
21824;BME280;11074;48.596;9.238;2024-02-26T12:46:06;96533.16;;;14.03;56.76
21824;BME280;11074;48.596;9.238;2024-02-26T12:48:32;96536.97;;;14.19;55.25
21824;BME280;11074;48.596;9.238;2024-02-26T12:50:57;96536.97;;;14.02;56.52
21824;BME280;11074;48.596;9.238;2024-02-26T12:53:22;96534.91;;;13.99;55.83
21824;BME280;11074;48.596;9.238;2024-02-26T12:55:48;96536.44;;;13.83;55.01
21824;BME280;11074;48.596;9.238;2024-02-26T12:58:14;96535.66;;;13.82;55.71
21824;BME280;11074;48.596;9.238;2024-02-26T13:00:40;96551.88;;;13.69;56.20
21824;BME280;11074;48.596;9.238;2024-02-26T13:03:06;96548.06;;;13.61;57.01
21824;BME280;11074;48.596;9.238;2024-02-26T13:05:32;96543.13;;;13.55;56.61
21824;BME280;11074;48.596;9.238;2024-02-26T13:07:58;96545.81;;;13.55;56.84